Terminal Aerodrome Forecast
Issued by NWS

Home | Current Version | Previous Version | Text Only | Print | Product List | Glossary On
Versions: 1 2 3 4 5 6 7 8 9 10 11 12 13 14 15 16 17 18 19 20 21 22 23 24 25 26 27
000
FTUS43 KGLD 231120
TAFMCK
TAF
KMCK 231120Z 2312/2412 33014KT P6SM SCT200 WS020/35050KT
     FM231600 32023G31KT P6SM SCT250 WS010/33050KT
     FM240000 32017KT P6SM SKC WS020/33040KT=

USA.gov is the U.S. government's official web portal to all federal, state and local government web resources and services.